CheckWX is a tool to help pilots better visualize weather data.  It is not intended as a substitute for an official pre-flight weather briefing.

05:21:42 UTC

KLCG METAR
Wayne Municipal / Stan Morris Field Airport
Wayne, Nebraska, USA
Current

27 mins ago

KLCG 080455Z AUTO 22012KT 10SM CLR 05/00 A2980 RMK AO2 T00450000
Observed
Dec-8 @ 04:55 UTC
Wind
  • 220° at 12 KTS
Visibility
10 SM
Flight Rules
VFR
Cloud Levels
  • Clear skies
Temperature
C / 41°F
Dewpoint
C / 32°F
Humidity
70%
Altimeter
29.8" Hg
Pressure
1009.12 hPa
Previous

47 mins ago

KLCG 080435Z AUTO 22014G19KT 10SM CLR 05/00 A2980 RMK AO2 T00480000
Observed
Dec-8 @ 04:35 UTC
Wind
  • 220° at 14 KTS
  • Gusting to 19 KTS
Visibility
10 SM
Flight Rules
VFR
Cloud Levels
  • Clear skies
Temperature
C / 41°F
Dewpoint
C / 32°F
Humidity
70%
Altimeter
29.8" Hg
Pressure
1009.12 hPa
Previous

1 hour ago

KLCG 080415Z AUTO 22014KT 10SM CLR 05/00 A2980 RMK AO2 T00500000
Observed
Dec-8 @ 04:15 UTC
Wind
  • 220° at 14 KTS
Visibility
10 SM
Flight Rules
VFR
Cloud Levels
  • Clear skies
Temperature
C / 41°F
Dewpoint
C / 32°F
Humidity
70%
Altimeter
29.8" Hg
Pressure
1009.12 hPa